sensor_id;sensor_type;location;lat;lon;timestamp;noise_LAeq;noise_LA_min;noise_LA_max;noise_LA01;noise_LA95
58251;Laerm;51449;51.676;5.812;2022-11-20T00:00:38;52.60;36.62;67.98;;
58251;Laerm;51449;51.676;5.812;2022-11-20T00:02:59;52.34;36.03;68.30;;
58251;Laerm;51449;51.676;5.812;2022-11-20T00:05:21;53.65;36.43;68.07;;
58251;Laerm;51449;51.676;5.812;2022-11-20T00:07:43;53.94;35.75;67.47;;
58251;Laerm;51449;51.676;5.812;2022-11-20T00:10:05;56.40;36.72;69.52;;
58251;Laerm;51449;51.676;5.812;2022-11-20T00:12:27;56.73;37.78;69.86;;
58251;Laerm;51449;51.676;5.812;2022-11-20T00:14:49;56.83;36.80;70.81;;
58251;Laerm;51449;51.676;5.812;2022-11-20T00:17:11;53.20;37.08;66.05;;
58251;Laerm;51449;51.676;5.812;2022-11-20T00:19:33;39.74;36.45;50.41;;
58251;Laerm;51449;51.676;5.812;2022-11-20T00:21:55;55.12;36.41;68.73;;
58251;Laerm;51449;51.676;5.812;2022-11-20T00:24:17;55.72;36.01;70.10;;
58251;Laerm;51449;51.676;5.812;2022-11-20T00:26:38;52.36;36.23;66.17;;
58251;Laerm;51449;51.676;5.812;2022-11-20T00:29:01;57.30;36.71;68.54;;
58251;Laerm;51449;51.676;5.812;2022-11-20T00:31:24;57.85;37.84;71.88;;
58251;Laerm;51449;51.676;5.812;2022-11-20T00:33:46;54.54;37.89;68.78;;
58251;Laerm;51449;51.676;5.812;2022-11-20T00:36:21;58.94;37.19;72.55;;
58251;Laerm;51449;51.676;5.812;2022-11-20T00:38:44;55.99;36.37;74.38;;
58251;Laerm;51449;51.676;5.812;2022-11-20T00:41:10;56.57;36.73;70.79;;
58251;Laerm;51449;51.676;5.812;2022-11-20T00:43:32;56.78;36.54;72.94;;
58251;Laerm;51449;51.676;5.812;2022-11-20T00:46:03;52.86;37.09;68.63;;
58251;Laerm;51449;51.676;5.812;2022-11-20T00:48:26;58.81;33.49;71.94;;
58251;Laerm;51449;51.676;5.812;2022-11-20T00:50:49;47.24;30.18;63.49;;
58251;Laerm;51449;51.676;5.812;2022-11-20T00:53:11;55.72;30.77;69.76;;
58251;Laerm;51449;51.676;5.812;2022-11-20T00:55:33;50.06;30.46;65.96;;
58251;Laerm;51449;51.676;5.812;2022-11-20T00:57:54;55.29;32.83;70.08;;
58251;Laerm;51449;51.676;5.812;2022-11-20T01:00:16;55.76;32.65;68.42;;
58251;Laerm;51449;51.676;5.812;2022-11-20T01:02:38;55.86;32.38;69.76;;
58251;Laerm;51449;51.676;5.812;2022-11-20T01:05:00;55.08;33.24;71.94;;
58251;Laerm;51449;51.676;5.812;2022-11-20T01:07:22;53.36;32.08;68.39;;
58251;Laerm;51449;51.676;5.812;2022-11-20T01:09:44;61.47;32.47;80.21;;
58251;Laerm;51449;51.676;5.812;2022-11-20T01:12:06;50.25;31.05;66.08;;
58251;Laerm;51449;51.676;5.812;2022-11-20T01:14:28;48.52;30.56;67.72;;
58251;Laerm;51449;51.676;5.812;2022-11-20T01:16:51;56.51;31.61;71.20;;
58251;Laerm;51449;51.676;5.812;2022-11-20T01:19:20;45.51;30.79;62.07;;
58251;Laerm;51449;51.676;5.812;2022-11-20T01:21:45;55.84;31.26;69.91;;
58251;Laerm;51449;51.676;5.812;2022-11-20T01:24:11;54.56;32.37;69.19;;
58251;Laerm;51449;51.676;5.812;2022-11-20T01:26:37;55.58;30.68;71.92;;
58251;Laerm;51449;51.676;5.812;2022-11-20T01:29:00;56.72;33.03;70.36;;
58251;Laerm;51449;51.676;5.812;2022-11-20T01:31:40;52.39;31.07;68.26;;
58251;Laerm;51449;51.676;5.812;2022-11-20T01:34:06;51.75;31.83;65.69;;
58251;Laerm;51449;51.676;5.812;2022-11-20T01:36:31;53.52;30.14;71.54;;
58251;Laerm;51449;51.676;5.812;2022-11-20T01:38:59;44.88;29.76;62.00;;
58251;Laerm;51449;51.676;5.812;2022-11-20T01:41:23;52.20;30.16;70.08;;
58251;Laerm;51449;51.676;5.812;2022-11-20T01:44:05;47.61;30.95;65.56;;
58251;Laerm;51449;51.676;5.812;2022-11-20T01:46:27;34.00;30.28;45.88;;
58251;Laerm;51449;51.676;5.812;2022-11-20T01:49:03;50.81;29.27;68.62;;
58251;Laerm;51449;51.676;5.812;2022-11-20T01:52:16;54.73;31.53;70.31;;
58251;Laerm;51449;51.676;5.812;2022-11-20T01:54:23;34.07;29.99;44.60;;
58251;Laerm;51449;51.676;5.812;2022-11-20T01:56:51;35.76;31.46;45.71;;
58251;Laerm;51449;51.676;5.812;2022-11-20T01:59:18;48.90;33.59;66.87;;
58251;Laerm;51449;51.676;5.812;2022-11-20T02:01:41;58.85;33.13;75.72;;
58251;Laerm;51449;51.676;5.812;2022-11-20T02:04:03;47.74;32.62;68.34;;
58251;Laerm;51449;51.676;5.812;2022-11-20T02:06:53;50.73;33.56;67.65;;
58251;Laerm;51449;51.676;5.812;2022-11-20T02:09:17;47.77;32.68;67.66;;
58251;Laerm;51449;51.676;5.812;2022-11-20T02:11:39;50.34;32.49;67.89;;
58251;Laerm;51449;51.676;5.812;2022-11-20T02:14:01;53.45;32.51;71.54;;
58251;Laerm;51449;51.676;5.812;2022-11-20T02:16:31;50.26;32.23;68.50;;
58251;Laerm;51449;51.676;5.812;2022-11-20T02:18:58;56.09;31.57;73.76;;
58251;Laerm;51449;51.676;5.812;2022-11-20T02:24:12;47.84;31.25;65.17;;
58251;Laerm;51449;51.676;5.812;2022-11-20T02:26:54;57.39;31.13;71.88;;
58251;Laerm;51449;51.676;5.812;2022-11-20T02:29:26;48.91;30.76;67.65;;
58251;Laerm;51449;51.676;5.812;2022-11-20T02:31:48;56.24;30.86;70.54;;
58251;Laerm;51449;51.676;5.812;2022-11-20T02:34:10;46.17;30.37;63.22;;
58251;Laerm;51449;51.676;5.812;2022-11-20T02:36:34;34.84;29.66;46.95;;
58251;Laerm;51449;51.676;5.812;2022-11-20T02:38:57;51.90;30.33;66.79;;
58251;Laerm;51449;51.676;5.812;2022-11-20T02:41:19;54.87;30.95;71.12;;
58251;Laerm;51449;51.676;5.812;2022-11-20T02:43:41;47.70;31.44;65.28;;
58251;Laerm;51449;51.676;5.812;2022-11-20T02:46:03;50.04;31.79;65.44;;
58251;Laerm;51449;51.676;5.812;2022-11-20T02:48:25;48.17;31.67;67.38;;
58251;Laerm;51449;51.676;5.812;2022-11-20T02:50:49;34.36;30.57;51.05;;
58251;Laerm;51449;51.676;5.812;2022-11-20T02:53:11;57.24;30.07;72.91;;
58251;Laerm;51449;51.676;5.812;2022-11-20T02:55:33;58.53;30.55;77.87;;
58251;Laerm;51449;51.676;5.812;2022-11-20T02:57:55;50.45;30.60;69.25;;
58251;Laerm;51449;51.676;5.812;2022-11-20T03:00:17;49.24;32.75;65.43;;
58251;Laerm;51449;51.676;5.812;2022-11-20T03:02:39;52.08;32.06;70.30;;
58251;Laerm;51449;51.676;5.812;2022-11-20T03:05:02;32.80;30.03;46.96;;
58251;Laerm;51449;51.676;5.812;2022-11-20T03:07:24;52.76;32.07;68.41;;
58251;Laerm;51449;51.676;5.812;2022-11-20T03:09:46;49.71;29.07;66.60;;
58251;Laerm;51449;51.676;5.812;2022-11-20T03:12:08;31.33;29.12;38.58;;
58251;Laerm;51449;51.676;5.812;2022-11-20T03:14:30;32.82;29.37;41.86;;
58251;Laerm;51449;51.676;5.812;2022-11-20T03:16:52;34.42;29.43;43.73;;
58251;Laerm;51449;51.676;5.812;2022-11-20T03:19:14;47.21;30.25;63.71;;
58251;Laerm;51449;51.676;5.812;2022-11-20T03:21:36;32.94;30.18;35.90;;
58251;Laerm;51449;51.676;5.812;2022-11-20T03:23:57;33.42;30.99;52.44;;
58251;Laerm;51449;51.676;5.812;2022-11-20T03:26:25;33.36;29.98;47.35;;
58251;Laerm;51449;51.676;5.812;2022-11-20T03:29:00;34.35;29.58;58.12;;
58251;Laerm;51449;51.676;5.812;2022-11-20T03:31:34;52.35;29.41;68.72;;
58251;Laerm;51449;51.676;5.812;2022-11-20T03:33:58;52.54;30.36;70.03;;
58251;Laerm;51449;51.676;5.812;2022-11-20T03:36:21;32.27;29.90;36.05;;
58251;Laerm;51449;51.676;5.812;2022-11-20T03:38:43;45.82;29.98;62.72;;
58251;Laerm;51449;51.676;5.812;2022-11-20T03:41:12;51.24;30.36;67.55;;
58251;Laerm;51449;51.676;5.812;2022-11-20T03:43:35;42.71;30.01;62.98;;
58251;Laerm;51449;51.676;5.812;2022-11-20T03:45:57;36.65;30.46;54.45;;
58251;Laerm;51449;51.676;5.812;2022-11-20T03:48:19;53.87;30.09;70.23;;
58251;Laerm;51449;51.676;5.812;2022-11-20T03:50:41;31.76;29.42;46.74;;
58251;Laerm;51449;51.676;5.812;2022-11-20T03:53:03;50.61;28.35;67.91;;
58251;Laerm;51449;51.676;5.812;2022-11-20T03:55:25;32.18;29.29;37.99;;
58251;Laerm;51449;51.676;5.812;2022-11-20T03:57:47;53.53;28.83;69.44;;
58251;Laerm;51449;51.676;5.812;2022-11-20T04:00:09;33.82;29.42;50.75;;
58251;Laerm;51449;51.676;5.812;2022-11-20T04:02:31;52.97;30.65;80.82;;
58251;Laerm;51449;51.676;5.812;2022-11-20T04:04:53;40.16;30.77;57.59;;
58251;Laerm;51449;51.676;5.812;2022-11-20T04:07:15;49.31;30.19;65.34;;
58251;Laerm;51449;51.676;5.812;2022-11-20T04:09:37;37.07;29.03;53.64;;
58251;Laerm;51449;51.676;5.812;2022-11-20T04:11:59;31.11;28.81;43.71;;
58251;Laerm;51449;51.676;5.812;2022-11-20T04:14:21;31.00;28.74;49.67;;
58251;Laerm;51449;51.676;5.812;2022-11-20T04:16:43;30.73;28.51;48.67;;
58251;Laerm;51449;51.676;5.812;2022-11-20T04:19:14;31.67;28.98;53.30;;
58251;Laerm;51449;51.676;5.812;2022-11-20T04:21:37;56.30;30.77;73.65;;
58251;Laerm;51449;51.676;5.812;2022-11-20T04:23:59;48.28;29.57;68.15;;
58251;Laerm;51449;51.676;5.812;2022-11-20T04:26:25;53.35;30.04;69.55;;
58251;Laerm;51449;51.676;5.812;2022-11-20T04:28:47;49.51;29.40;67.94;;
58251;Laerm;51449;51.676;5.812;2022-11-20T04:31:19;30.80;28.37;50.51;;
58251;Laerm;51449;51.676;5.812;2022-11-20T04:33:43;47.51;28.58;64.51;;
58251;Laerm;51449;51.676;5.812;2022-11-20T04:36:16;30.85;28.05;52.50;;
58251;Laerm;51449;51.676;5.812;2022-11-20T04:38:40;56.08;28.73;70.86;;
58251;Laerm;51449;51.676;5.812;2022-11-20T04:41:06;47.65;28.56;64.81;;
58251;Laerm;51449;51.676;5.812;2022-11-20T04:43:28;40.70;28.51;62.08;;
58251;Laerm;51449;51.676;5.812;2022-11-20T04:45:54;44.47;28.91;62.02;;
58251;Laerm;51449;51.676;5.812;2022-11-20T04:48:16;48.18;28.93;66.73;;
58251;Laerm;51449;51.676;5.812;2022-11-20T04:50:40;49.64;28.54;65.00;;
58251;Laerm;51449;51.676;5.812;2022-11-20T04:53:02;47.62;29.12;64.21;;
58251;Laerm;51449;51.676;5.812;2022-11-20T04:55:24;31.98;29.36;37.05;;
58251;Laerm;51449;51.676;5.812;2022-11-20T04:57:50;46.26;29.87;64.37;;
58251;Laerm;51449;51.676;5.812;2022-11-20T05:00:14;51.18;29.62;69.76;;
58251;Laerm;51449;51.676;5.812;2022-11-20T05:02:37;32.10;29.39;50.21;;
58251;Laerm;51449;51.676;5.812;2022-11-20T05:05:00;31.31;28.57;36.55;;
58251;Laerm;51449;51.676;5.812;2022-11-20T05:07:25;46.75;29.23;63.64;;
58251;Laerm;51449;51.676;5.812;2022-11-20T05:09:48;48.74;29.23;65.73;;
58251;Laerm;51449;51.676;5.812;2022-11-20T05:12:10;31.83;29.31;34.94;;
58251;Laerm;51449;51.676;5.812;2022-11-20T05:14:33;34.54;29.80;47.68;;
58251;Laerm;51449;51.676;5.812;2022-11-20T05:17:00;52.30;29.20;67.33;;
58251;Laerm;51449;51.676;5.812;2022-11-20T05:19:23;51.10;30.91;67.73;;
58251;Laerm;51449;51.676;5.812;2022-11-20T05:21:55;54.07;30.91;69.09;;
58251;Laerm;51449;51.676;5.812;2022-11-20T05:24:30;54.50;29.87;70.57;;
58251;Laerm;51449;51.676;5.812;2022-11-20T05:27:06;48.61;29.65;67.65;;
58251;Laerm;51449;51.676;5.812;2022-11-20T05:29:51;57.71;32.20;74.61;;
58251;Laerm;51449;51.676;5.812;2022-11-20T05:32:22;55.44;33.52;69.79;;
58251;Laerm;51449;51.676;5.812;2022-11-20T05:39:13;48.42;31.43;67.31;;
58251;Laerm;51449;51.676;5.812;2022-11-20T05:41:40;54.61;32.25;68.06;;
58251;Laerm;51449;51.676;5.812;2022-11-20T05:44:30;44.56;30.75;61.59;;
58251;Laerm;51449;51.676;5.812;2022-11-20T05:52:19;52.81;32.87;69.16;;
58251;Laerm;51449;51.676;5.812;2022-11-20T05:54:43;46.39;32.59;63.38;;
58251;Laerm;51449;51.676;5.812;2022-11-20T05:57:07;52.82;33.22;67.96;;
58251;Laerm;51449;51.676;5.812;2022-11-20T05:59:31;34.38;30.92;39.80;;
58251;Laerm;51449;51.676;5.812;2022-11-20T06:01:54;59.51;33.61;74.04;;
58251;Laerm;51449;51.676;5.812;2022-11-20T06:04:18;51.47;30.55;67.72;;
58251;Laerm;51449;51.676;5.812;2022-11-20T06:06:44;55.46;31.19;72.22;;
58251;Laerm;51449;51.676;5.812;2022-11-20T06:09:09;55.48;31.71;71.57;;
58251;Laerm;51449;51.676;5.812;2022-11-20T06:11:34;52.23;32.11;67.31;;
58251;Laerm;51449;51.676;5.812;2022-11-20T06:13:58;57.46;31.60;71.36;;
58251;Laerm;51449;51.676;5.812;2022-11-20T06:16:23;55.98;32.01;70.83;;
58251;Laerm;51449;51.676;5.812;2022-11-20T06:18:48;56.74;33.05;71.12;;
58251;Laerm;51449;51.676;5.812;2022-11-20T06:21:58;55.75;32.65;70.45;;
58251;Laerm;51449;51.676;5.812;2022-11-20T06:24:20;60.04;32.78;75.46;;
58251;Laerm;51449;51.676;5.812;2022-11-20T06:26:44;50.80;31.49;64.83;;
58251;Laerm;51449;51.676;5.812;2022-11-20T06:29:08;55.10;31.65;67.11;;
58251;Laerm;51449;51.676;5.812;2022-11-20T06:31:32;57.20;32.34;70.57;;
58251;Laerm;51449;51.676;5.812;2022-11-20T06:34:01;54.22;32.03;68.94;;
58251;Laerm;51449;51.676;5.812;2022-11-20T06:36:25;52.09;31.86;69.38;;
58251;Laerm;51449;51.676;5.812;2022-11-20T06:38:49;58.26;34.28;72.65;;
58251;Laerm;51449;51.676;5.812;2022-11-20T06:41:16;53.60;33.74;68.26;;
58251;Laerm;51449;51.676;5.812;2022-11-20T06:43:40;57.36;32.35;76.34;;
58251;Laerm;51449;51.676;5.812;2022-11-20T06:46:12;52.04;31.16;70.05;;
58251;Laerm;51449;51.676;5.812;2022-11-20T06:52:24;51.11;30.73;72.01;;
58251;Laerm;51449;51.676;5.812;2022-11-20T06:58:45;50.35;32.84;67.78;;
58251;Laerm;51449;51.676;5.812;2022-11-20T07:01:14;51.36;32.72;65.85;;
58251;Laerm;51449;51.676;5.812;2022-11-20T07:09:17;59.29;31.13;77.44;;
58251;Laerm;51449;51.676;5.812;2022-11-20T07:11:40;57.84;31.46;75.60;;
58251;Laerm;51449;51.676;5.812;2022-11-20T07:14:05;59.83;32.46;82.66;;
58251;Laerm;51449;51.676;5.812;2022-11-20T07:16:35;57.19;33.55;76.96;;
58251;Laerm;51449;51.676;5.812;2022-11-20T07:19:03;58.76;34.51;72.57;;
58251;Laerm;51449;51.676;5.812;2022-11-20T07:21:29;57.83;34.84;74.58;;
58251;Laerm;51449;51.676;5.812;2022-11-20T07:24:01;51.05;33.26;71.47;;
58251;Laerm;51449;51.676;5.812;2022-11-20T07:26:26;56.90;34.50;76.59;;
58251;Laerm;51449;51.676;5.812;2022-11-20T07:28:51;58.04;35.40;74.27;;
58251;Laerm;51449;51.676;5.812;2022-11-20T07:31:15;55.75;33.35;76.92;;
58251;Laerm;51449;51.676;5.812;2022-11-20T07:33:41;58.60;35.57;76.91;;
58251;Laerm;51449;51.676;5.812;2022-11-20T08:32:09;58.27;36.65;70.91;;
58251;Laerm;51449;51.676;5.812;2022-11-20T08:41:25;61.11;35.31;72.41;;
58251;Laerm;51449;51.676;5.812;2022-11-20T08:44:09;58.00;36.07;75.53;;
58251;Laerm;51449;51.676;5.812;2022-11-20T08:46:39;61.06;38.07;72.26;;
58251;Laerm;51449;51.676;5.812;2022-11-20T08:49:06;61.48;35.52;74.92;;
58251;Laerm;51449;51.676;5.812;2022-11-20T08:51:30;54.74;35.85;69.59;;
58251;Laerm;51449;51.676;5.812;2022-11-20T08:53:53;58.94;36.68;71.04;;
58251;Laerm;51449;51.676;5.812;2022-11-20T08:56:17;59.30;36.25;70.49;;
58251;Laerm;51449;51.676;5.812;2022-11-20T08:58:40;60.88;39.21;71.18;;
58251;Laerm;51449;51.676;5.812;2022-11-20T09:01:23;59.56;36.23;73.18;;
58251;Laerm;51449;51.676;5.812;2022-11-20T09:03:46;61.13;36.26;74.14;;
58251;Laerm;51449;51.676;5.812;2022-11-20T09:06:11;60.29;41.52;73.65;;
58251;Laerm;51449;51.676;5.812;2022-11-20T09:08:34;61.28;38.61;72.06;;
58251;Laerm;51449;51.676;5.812;2022-11-20T09:10:58;60.30;38.21;70.71;;
58251;Laerm;51449;51.676;5.812;2022-11-20T09:13:23;58.84;37.22;70.61;;
58251;Laerm;51449;51.676;5.812;2022-11-20T09:15:46;60.27;36.44;69.93;;
58251;Laerm;51449;51.676;5.812;2022-11-20T09:18:08;59.62;35.91;71.50;;
58251;Laerm;51449;51.676;5.812;2022-11-20T09:20:31;58.99;37.42;73.51;;
58251;Laerm;51449;51.676;5.812;2022-11-20T09:22:53;61.08;38.03;77.98;;
58251;Laerm;51449;51.676;5.812;2022-11-20T09:25:15;59.41;36.59;69.85;;
58251;Laerm;51449;51.676;5.812;2022-11-20T09:27:37;60.72;36.75;75.24;;
58251;Laerm;51449;51.676;5.812;2022-11-20T09:29:59;58.40;35.71;70.30;;
58251;Laerm;51449;51.676;5.812;2022-11-20T09:32:21;59.87;36.99;71.67;;
58251;Laerm;51449;51.676;5.812;2022-11-20T09:34:43;59.42;37.46;73.00;;
58251;Laerm;51449;51.676;5.812;2022-11-20T09:37:05;67.88;37.33;100.16;;
58251;Laerm;51449;51.676;5.812;2022-11-20T09:39:28;63.58;37.87;74.62;;
58251;Laerm;51449;51.676;5.812;2022-11-20T09:42:48;61.90;36.85;73.46;;
58251;Laerm;51449;51.676;5.812;2022-11-20T09:48:12;60.87;36.42;71.48;;
58251;Laerm;51449;51.676;5.812;2022-11-20T09:50:52;61.92;33.75;74.50;;
58251;Laerm;51449;51.676;5.812;2022-11-20T09:53:30;59.59;40.25;72.61;;
58251;Laerm;51449;51.676;5.812;2022-11-20T09:55:57;59.79;36.44;70.44;;
58251;Laerm;51449;51.676;5.812;2022-11-20T09:58:34;61.92;41.05;70.72;;
58251;Laerm;51449;51.676;5.812;2022-11-20T10:01:12;59.34;37.94;70.29;;
58251;Laerm;51449;51.676;5.812;2022-11-20T10:03:58;61.37;40.21;70.32;;
58251;Laerm;51449;51.676;5.812;2022-11-20T10:06:34;59.99;35.56;73.96;;
58251;Laerm;51449;51.676;5.812;2022-11-20T10:12:01;60.71;36.40;76.05;;
58251;Laerm;51449;51.676;5.812;2022-11-20T10:20:16;61.40;33.53;79.43;;
58251;Laerm;51449;51.676;5.812;2022-11-20T10:25:33;59.68;35.06;72.92;;
58251;Laerm;51449;51.676;5.812;2022-11-20T10:31:11;62.04;40.16;73.31;;
58251;Laerm;51449;51.676;5.812;2022-11-20T10:33:41;60.58;40.17;71.69;;
58251;Laerm;51449;51.676;5.812;2022-11-20T10:36:38;59.73;34.78;70.26;;
58251;Laerm;51449;51.676;5.812;2022-11-20T10:39:33;61.91;36.74;75.61;;
58251;Laerm;51449;51.676;5.812;2022-11-20T10:41:57;61.46;39.63;75.47;;
58251;Laerm;51449;51.676;5.812;2022-11-20T10:44:28;59.10;38.92;71.16;;
58251;Laerm;51449;51.676;5.812;2022-11-20T10:47:17;62.88;38.99;69.91;;
58251;Laerm;51449;51.676;5.812;2022-11-20T10:49:41;59.21;40.65;69.18;;
58251;Laerm;51449;51.676;5.812;2022-11-20T10:54:56;60.82;36.85;70.72;;
58251;Laerm;51449;51.676;5.812;2022-11-20T11:02:55;61.80;36.81;73.68;;
58251;Laerm;51449;51.676;5.812;2022-11-20T11:07:59;60.19;37.85;71.14;;
58251;Laerm;51449;51.676;5.812;2022-11-20T11:10:28;60.73;35.82;70.21;;
58251;Laerm;51449;51.676;5.812;2022-11-20T11:29:22;63.03;38.87;75.28;;
58251;Laerm;51449;51.676;5.812;2022-11-20T11:31:45;60.67;36.95;75.22;;
58251;Laerm;51449;51.676;5.812;2022-11-20T11:34:17;60.64;38.00;77.26;;
58251;Laerm;51449;51.676;5.812;2022-11-20T11:36:40;59.58;38.80;71.94;;
58251;Laerm;51449;51.676;5.812;2022-11-20T11:39:05;61.08;40.19;70.64;;
58251;Laerm;51449;51.676;5.812;2022-11-20T11:41:32;62.28;42.96;71.80;;
58251;Laerm;51449;51.676;5.812;2022-11-20T11:44:18;57.52;36.16;69.69;;
58251;Laerm;51449;51.676;5.812;2022-11-20T11:47:00;61.11;37.66;73.22;;
58251;Laerm;51449;51.676;5.812;2022-11-20T11:49:23;60.32;39.83;69.99;;
58251;Laerm;51449;51.676;5.812;2022-11-20T11:54:32;60.26;38.44;69.39;;
58251;Laerm;51449;51.676;5.812;2022-11-20T11:57:01;59.17;33.94;76.87;;
58251;Laerm;51449;51.676;5.812;2022-11-20T12:00:09;60.01;36.25;76.94;;
58251;Laerm;51449;51.676;5.812;2022-11-20T12:05:29;61.20;43.94;70.69;;
58251;Laerm;51449;51.676;5.812;2022-11-20T12:08:03;61.46;43.34;71.07;;
58251;Laerm;51449;51.676;5.812;2022-11-20T12:13:57;63.26;39.46;79.12;;
58251;Laerm;51449;51.676;5.812;2022-11-20T12:16:49;62.46;39.59;71.07;;
58251;Laerm;51449;51.676;5.812;2022-11-20T12:19:41;61.98;39.45;73.35;;
58251;Laerm;51449;51.676;5.812;2022-11-20T12:25:56;63.41;45.02;71.65;;
58251;Laerm;51449;51.676;5.812;2022-11-20T12:28:35;61.83;37.79;70.98;;
58251;Laerm;51449;51.676;5.812;2022-11-20T12:31:16;63.86;41.76;72.24;;
58251;Laerm;51449;51.676;5.812;2022-11-20T12:33:51;61.65;38.24;70.25;;
58251;Laerm;51449;51.676;5.812;2022-11-20T12:37:02;61.70;39.32;70.41;;
58251;Laerm;51449;51.676;5.812;2022-11-20T12:39:35;62.92;38.54;77.73;;
58251;Laerm;51449;51.676;5.812;2022-11-20T12:42:29;62.25;38.13;81.50;;
58251;Laerm;51449;51.676;5.812;2022-11-20T12:55:08;61.70;41.41;70.28;;
58251;Laerm;51449;51.676;5.812;2022-11-20T13:00:22;62.01;37.93;73.21;;
58251;Laerm;51449;51.676;5.812;2022-11-20T13:09:04;62.56;40.76;71.28;;
58251;Laerm;51449;51.676;5.812;2022-11-20T13:12:44;61.95;41.08;73.82;;
58251;Laerm;51449;51.676;5.812;2022-11-20T13:18:04;62.65;45.87;75.57;;
58251;Laerm;51449;51.676;5.812;2022-11-20T13:23:28;61.95;43.52;70.99;;
58251;Laerm;51449;51.676;5.812;2022-11-20T13:28:42;60.11;42.41;69.85;;
58251;Laerm;51449;51.676;5.812;2022-11-20T13:31:32;62.01;40.07;72.65;;
58251;Laerm;51449;51.676;5.812;2022-11-20T13:33:57;61.20;44.77;73.96;;
58251;Laerm;51449;51.676;5.812;2022-11-20T13:36:48;62.67;40.95;69.97;;
58251;Laerm;51449;51.676;5.812;2022-11-20T13:39:34;63.55;39.99;75.34;;
58251;Laerm;51449;51.676;5.812;2022-11-20T13:42:18;59.97;39.95;70.09;;
58251;Laerm;51449;51.676;5.812;2022-11-20T13:44:55;62.86;39.55;74.32;;
58251;Laerm;51449;51.676;5.812;2022-11-20T13:47:28;63.14;44.81;74.08;;
58251;Laerm;51449;51.676;5.812;2022-11-20T13:49:55;59.41;38.64;70.55;;
58251;Laerm;51449;51.676;5.812;2022-11-20T13:55:58;62.72;42.33;72.59;;
58251;Laerm;51449;51.676;5.812;2022-11-20T14:00:57;61.41;41.94;72.15;;
58251;Laerm;51449;51.676;5.812;2022-11-20T14:03:25;59.82;42.18;69.19;;
58251;Laerm;51449;51.676;5.812;2022-11-20T14:06:32;60.08;37.50;71.31;;
58251;Laerm;51449;51.676;5.812;2022-11-20T14:08:57;66.54;47.67;71.94;;
58251;Laerm;51449;51.676;5.812;2022-11-20T14:11:23;65.96;55.68;74.63;;
58251;Laerm;51449;51.676;5.812;2022-11-20T14:14:04;67.63;52.77;78.30;;
58251;Laerm;51449;51.676;5.812;2022-11-20T14:16:30;65.43;45.81;77.10;;
58251;Laerm;51449;51.676;5.812;2022-11-20T14:18:53;67.42;43.95;77.19;;
58251;Laerm;51449;51.676;5.812;2022-11-20T14:21:29;67.48;41.08;77.16;;
58251;Laerm;51449;51.676;5.812;2022-11-20T14:24:04;67.84;50.05;77.14;;
58251;Laerm;51449;51.676;5.812;2022-11-20T14:26:27;63.38;39.64;73.03;;
58251;Laerm;51449;51.676;5.812;2022-11-20T14:28:50;64.33;41.61;77.14;;
58251;Laerm;51449;51.676;5.812;2022-11-20T14:31:26;67.10;41.28;77.06;;
58251;Laerm;51449;51.676;5.812;2022-11-20T14:33:51;65.31;39.27;75.55;;
58251;Laerm;51449;51.676;5.812;2022-11-20T14:36:21;65.79;40.75;73.88;;
58251;Laerm;51449;51.676;5.812;2022-11-20T14:38:46;65.75;44.42;74.90;;
58251;Laerm;51449;51.676;5.812;2022-11-20T14:41:19;63.61;41.81;74.48;;
58251;Laerm;51449;51.676;5.812;2022-11-20T14:43:46;67.59;48.03;78.58;;
58251;Laerm;51449;51.676;5.812;2022-11-20T14:46:10;67.23;45.39;75.47;;
58251;Laerm;51449;51.676;5.812;2022-11-20T14:48:43;66.38;40.21;75.99;;
58251;Laerm;51449;51.676;5.812;2022-11-20T14:51:35;64.45;41.15;77.43;;
58251;Laerm;51449;51.676;5.812;2022-11-20T14:54:19;66.97;40.11;77.92;;
58251;Laerm;51449;51.676;5.812;2022-11-20T14:57:03;64.53;39.65;74.09;;
58251;Laerm;51449;51.676;5.812;2022-11-20T14:59:33;65.00;46.58;74.68;;
58251;Laerm;51449;51.676;5.812;2022-11-20T15:02:16;66.24;44.54;74.26;;
58251;Laerm;51449;51.676;5.812;2022-11-20T15:04:50;65.40;47.39;74.26;;
58251;Laerm;51449;51.676;5.812;2022-11-20T15:07:27;65.65;50.28;76.86;;
58251;Laerm;51449;51.676;5.812;2022-11-20T15:12:34;68.19;47.23;76.98;;
58251;Laerm;51449;51.676;5.812;2022-11-20T15:14:58;67.54;51.18;77.89;;
58251;Laerm;51449;51.676;5.812;2022-11-20T15:17:20;70.63;56.80;79.68;;
58251;Laerm;51449;51.676;5.812;2022-11-20T15:19:42;69.14;55.65;81.47;;
58251;Laerm;51449;51.676;5.812;2022-11-20T15:22:11;70.12;56.00;78.92;;
58251;Laerm;51449;51.676;5.812;2022-11-20T15:24:37;70.85;56.94;79.41;;
58251;Laerm;51449;51.676;5.812;2022-11-20T15:26:59;70.24;59.68;79.40;;
58251;Laerm;51449;51.676;5.812;2022-11-20T15:29:23;70.68;58.15;80.09;;
58251;Laerm;51449;51.676;5.812;2022-11-20T15:31:45;71.10;60.10;79.09;;
58251;Laerm;51449;51.676;5.812;2022-11-20T15:34:12;71.58;57.86;79.56;;
58251;Laerm;51449;51.676;5.812;2022-11-20T15:36:34;72.25;58.73;80.60;;
58251;Laerm;51449;51.676;5.812;2022-11-20T15:38:56;72.28;56.36;79.42;;
58251;Laerm;51449;51.676;5.812;2022-11-20T15:41:17;69.60;56.02;81.36;;
58251;Laerm;51449;51.676;5.812;2022-11-20T15:43:39;71.31;51.65;79.36;;
58251;Laerm;51449;51.676;5.812;2022-11-20T15:46:09;69.25;52.06;79.12;;
58251;Laerm;51449;51.676;5.812;2022-11-20T15:48:40;71.10;55.91;80.11;;
58251;Laerm;51449;51.676;5.812;2022-11-20T15:51:27;69.21;54.14;78.27;;
58251;Laerm;51449;51.676;5.812;2022-11-20T15:53:50;68.59;48.45;78.43;;
58251;Laerm;51449;51.676;5.812;2022-11-20T15:56:14;66.70;49.10;76.41;;
58251;Laerm;51449;51.676;5.812;2022-11-20T15:58:35;69.57;46.30;81.93;;
58251;Laerm;51449;51.676;5.812;2022-11-20T16:00:57;67.75;44.26;78.80;;
58251;Laerm;51449;51.676;5.812;2022-11-20T16:03:20;69.03;43.41;91.03;;
58251;Laerm;51449;51.676;5.812;2022-11-20T16:05:42;68.14;47.16;76.23;;
58251;Laerm;51449;51.676;5.812;2022-11-20T16:08:04;71.06;43.86;79.45;;
58251;Laerm;51449;51.676;5.812;2022-11-20T16:10:32;67.66;44.55;77.98;;
58251;Laerm;51449;51.676;5.812;2022-11-20T16:12:54;66.99;44.03;83.61;;
58251;Laerm;51449;51.676;5.812;2022-11-20T16:15:34;67.76;48.65;77.04;;
58251;Laerm;51449;51.676;5.812;2022-11-20T16:18:11;68.17;47.30;76.34;;
58251;Laerm;51449;51.676;5.812;2022-11-20T16:20:33;66.16;46.52;73.92;;
58251;Laerm;51449;51.676;5.812;2022-11-20T16:22:55;66.06;44.60;75.41;;
58251;Laerm;51449;51.676;5.812;2022-11-20T16:25:17;63.78;45.20;75.64;;
58251;Laerm;51449;51.676;5.812;2022-11-20T16:27:39;70.17;48.25;79.65;;
58251;Laerm;51449;51.676;5.812;2022-11-20T16:30:01;64.61;45.24;76.02;;
58251;Laerm;51449;51.676;5.812;2022-11-20T16:32:23;67.77;44.31;79.65;;
58251;Laerm;51449;51.676;5.812;2022-11-20T16:34:45;70.04;48.31;77.27;;
58251;Laerm;51449;51.676;5.812;2022-11-20T16:37:07;65.31;43.95;77.69;;
58251;Laerm;51449;51.676;5.812;2022-11-20T16:39:29;70.57;46.88;80.97;;
58251;Laerm;51449;51.676;5.812;2022-11-20T16:41:51;68.07;45.73;82.29;;
58251;Laerm;51449;51.676;5.812;2022-11-20T16:44:13;63.34;40.70;77.41;;
58251;Laerm;51449;51.676;5.812;2022-11-20T16:46:36;67.56;41.31;76.39;;
58251;Laerm;51449;51.676;5.812;2022-11-20T16:51:21;66.50;44.98;77.28;;
58251;Laerm;51449;51.676;5.812;2022-11-20T16:53:44;67.68;43.55;76.96;;